sensor_id;sensor_type;location;lat;lon;timestamp;P1;durP1;ratioP1;P2;durP2;ratioP2
35257;SDS011;21385;50.878;8.050;2023-06-10T00:01:09;5.95;;;3.90;;
35257;SDS011;21385;50.878;8.050;2023-06-10T00:03:35;7.60;;;4.68;;
35257;SDS011;21385;50.878;8.050;2023-06-10T00:06:01;6.45;;;4.15;;
35257;SDS011;21385;50.878;8.050;2023-06-10T00:08:27;4.28;;;3.83;;
35257;SDS011;21385;50.878;8.050;2023-06-10T00:10:54;3.65;;;3.30;;
35257;SDS011;21385;50.878;8.050;2023-06-10T00:13:20;7.80;;;3.95;;
35257;SDS011;21385;50.878;8.050;2023-06-10T00:15:46;4.95;;;3.88;;
35257;SDS011;21385;50.878;8.050;2023-06-10T00:18:12;5.40;;;4.20;;
35257;SDS011;21385;50.878;8.050;2023-06-10T00:20:38;4.43;;;4.03;;
35257;SDS011;21385;50.878;8.050;2023-06-10T00:23:04;5.63;;;4.63;;
35257;SDS011;21385;50.878;8.050;2023-06-10T00:25:33;5.10;;;3.67;;
35257;SDS011;21385;50.878;8.050;2023-06-10T00:27:59;7.82;;;4.40;;
35257;SDS011;21385;50.878;8.050;2023-06-10T00:30:25;6.07;;;3.75;;
35257;SDS011;21385;50.878;8.050;2023-06-10T00:32:51;4.72;;;4.13;;
35257;SDS011;21385;50.878;8.050;2023-06-10T00:35:17;13.90;;;4.03;;
35257;SDS011;21385;50.878;8.050;2023-06-10T00:37:43;6.72;;;4.20;;
35257;SDS011;21385;50.878;8.050;2023-06-10T00:40:10;5.32;;;4.55;;
35257;SDS011;21385;50.878;8.050;2023-06-10T00:42:36;6.13;;;3.80;;
35257;SDS011;21385;50.878;8.050;2023-06-10T00:45:03;6.72;;;3.95;;
35257;SDS011;21385;50.878;8.050;2023-06-10T00:47:29;4.38;;;3.97;;
35257;SDS011;21385;50.878;8.050;2023-06-10T00:49:56;5.95;;;3.95;;
35257;SDS011;21385;50.878;8.050;2023-06-10T00:52:22;7.68;;;4.10;;
35257;SDS011;21385;50.878;8.050;2023-06-10T00:54:49;4.88;;;4.00;;
35257;SDS011;21385;50.878;8.050;2023-06-10T00:57:15;5.25;;;3.65;;
35257;SDS011;21385;50.878;8.050;2023-06-10T00:59:41;7.10;;;4.15;;
35257;SDS011;21385;50.878;8.050;2023-06-10T01:02:11;4.10;;;3.67;;
35257;SDS011;21385;50.878;8.050;2023-06-10T01:04:36;4.00;;;3.60;;
35257;SDS011;21385;50.878;8.050;2023-06-10T01:07:17;8.50;;;3.85;;
35257;SDS011;21385;50.878;8.050;2023-06-10T01:10:03;5.57;;;4.10;;
35257;SDS011;21385;50.878;8.050;2023-06-10T01:12:55;3.83;;;3.53;;
35257;SDS011;21385;50.878;8.050;2023-06-10T01:15:27;7.90;;;3.95;;
35257;SDS011;21385;50.878;8.050;2023-06-10T01:20:26;6.43;;;4.25;;
35257;SDS011;21385;50.878;8.050;2023-06-10T01:22:53;4.57;;;3.70;;
35257;SDS011;21385;50.878;8.050;2023-06-10T01:25:20;4.28;;;3.88;;
35257;SDS011;21385;50.878;8.050;2023-06-10T01:27:53;4.50;;;4.10;;
35257;SDS011;21385;50.878;8.050;2023-06-10T01:30:22;9.25;;;4.30;;
35257;SDS011;21385;50.878;8.050;2023-06-10T01:32:55;10.13;;;4.50;;
35257;SDS011;21385;50.878;8.050;2023-06-10T01:35:24;5.82;;;3.78;;
35257;SDS011;21385;50.878;8.050;2023-06-10T01:37:53;4.73;;;4.23;;
35257;SDS011;21385;50.878;8.050;2023-06-10T01:40:21;4.60;;;3.97;;
35257;SDS011;21385;50.878;8.050;2023-06-10T01:42:48;5.00;;;4.10;;
35257;SDS011;21385;50.878;8.050;2023-06-10T01:45:14;5.35;;;3.58;;
35257;SDS011;21385;50.878;8.050;2023-06-10T01:47:40;7.80;;;3.08;;
35257;SDS011;21385;50.878;8.050;2023-06-10T01:50:06;7.78;;;4.63;;
35257;SDS011;21385;50.878;8.050;2023-06-10T01:52:32;8.25;;;4.88;;
35257;SDS011;21385;50.878;8.050;2023-06-10T01:54:57;5.05;;;4.55;;
35257;SDS011;21385;50.878;8.050;2023-06-10T01:57:23;9.40;;;4.05;;
35257;SDS011;21385;50.878;8.050;2023-06-10T01:59:49;9.02;;;4.55;;
35257;SDS011;21385;50.878;8.050;2023-06-10T02:02:14;6.43;;;3.90;;
35257;SDS011;21385;50.878;8.050;2023-06-10T02:04:40;4.80;;;3.88;;
35257;SDS011;21385;50.878;8.050;2023-06-10T02:07:06;6.53;;;4.00;;
35257;SDS011;21385;50.878;8.050;2023-06-10T02:09:31;6.15;;;3.67;;
35257;SDS011;21385;50.878;8.050;2023-06-10T02:12:00;5.32;;;3.47;;
35257;SDS011;21385;50.878;8.050;2023-06-10T02:14:27;6.00;;;4.03;;
35257;SDS011;21385;50.878;8.050;2023-06-10T02:16:52;4.43;;;3.72;;
35257;SDS011;21385;50.878;8.050;2023-06-10T02:19:21;4.18;;;3.78;;
35257;SDS011;21385;50.878;8.050;2023-06-10T02:21:47;5.63;;;4.13;;
35257;SDS011;21385;50.878;8.050;2023-06-10T02:24:13;5.35;;;3.95;;
35257;SDS011;21385;50.878;8.050;2023-06-10T02:26:38;10.90;;;4.22;;
35257;SDS011;21385;50.878;8.050;2023-06-10T02:29:05;4.85;;;3.92;;
35257;SDS011;21385;50.878;8.050;2023-06-10T02:31:31;4.40;;;3.90;;
35257;SDS011;21385;50.878;8.050;2023-06-10T02:34:00;3.75;;;3.40;;
35257;SDS011;21385;50.878;8.050;2023-06-10T02:36:26;4.22;;;3.58;;
35257;SDS011;21385;50.878;8.050;2023-06-10T02:38:52;3.50;;;3.20;;
35257;SDS011;21385;50.878;8.050;2023-06-10T02:41:18;4.80;;;4.07;;
35257;SDS011;21385;50.878;8.050;2023-06-10T02:43:43;3.38;;;3.08;;
35257;SDS011;21385;50.878;8.050;2023-06-10T02:46:09;8.02;;;4.25;;
35257;SDS011;21385;50.878;8.050;2023-06-10T02:48:41;7.45;;;4.15;;
35257;SDS011;21385;50.878;8.050;2023-06-10T02:51:10;5.20;;;3.88;;
35257;SDS011;21385;50.878;8.050;2023-06-10T02:53:36;4.43;;;3.92;;
35257;SDS011;21385;50.878;8.050;2023-06-10T02:56:02;3.97;;;3.67;;
35257;SDS011;21385;50.878;8.050;2023-06-10T02:58:28;6.03;;;3.78;;
35257;SDS011;21385;50.878;8.050;2023-06-10T03:00:53;5.47;;;4.18;;
35257;SDS011;21385;50.878;8.050;2023-06-10T03:03:19;4.80;;;3.90;;
35257;SDS011;21385;50.878;8.050;2023-06-10T03:05:47;5.00;;;4.20;;
35257;SDS011;21385;50.878;8.050;2023-06-10T03:08:13;9.88;;;3.50;;
35257;SDS011;21385;50.878;8.050;2023-06-10T03:10:38;4.50;;;4.10;;
35257;SDS011;21385;50.878;8.050;2023-06-10T03:13:04;4.60;;;3.92;;
35257;SDS011;21385;50.878;8.050;2023-06-10T03:15:30;5.45;;;4.25;;
35257;SDS011;21385;50.878;8.050;2023-06-10T03:17:58;4.45;;;3.72;;
35257;SDS011;21385;50.878;8.050;2023-06-10T03:20:27;10.13;;;3.47;;
35257;SDS011;21385;50.878;8.050;2023-06-10T03:22:53;4.53;;;4.18;;
35257;SDS011;21385;50.878;8.050;2023-06-10T03:25:19;5.00;;;3.47;;
35257;SDS011;21385;50.878;8.050;2023-06-10T03:27:46;4.68;;;3.83;;
35257;SDS011;21385;50.878;8.050;2023-06-10T03:30:12;5.38;;;3.75;;
35257;SDS011;21385;50.878;8.050;2023-06-10T03:32:38;3.50;;;3.20;;
35257;SDS011;21385;50.878;8.050;2023-06-10T03:35:04;6.45;;;3.88;;
35257;SDS011;21385;50.878;8.050;2023-06-10T03:37:30;5.25;;;3.80;;
35257;SDS011;21385;50.878;8.050;2023-06-10T03:39:55;4.25;;;3.88;;
35257;SDS011;21385;50.878;8.050;2023-06-10T03:42:21;4.82;;;3.97;;
35257;SDS011;21385;50.878;8.050;2023-06-10T03:44:46;3.45;;;2.95;;
35257;SDS011;21385;50.878;8.050;2023-06-10T03:47:12;5.53;;;3.90;;
35257;SDS011;21385;50.878;8.050;2023-06-10T03:49:38;5.63;;;4.15;;
35257;SDS011;21385;50.878;8.050;2023-06-10T03:52:05;5.43;;;4.13;;
35257;SDS011;21385;50.878;8.050;2023-06-10T03:54:31;4.70;;;3.60;;
35257;SDS011;21385;50.878;8.050;2023-06-10T03:56:59;5.80;;;3.97;;
35257;SDS011;21385;50.878;8.050;2023-06-10T03:59:25;4.25;;;3.55;;
35257;SDS011;21385;50.878;8.050;2023-06-10T04:01:50;5.57;;;4.00;;
35257;SDS011;21385;50.878;8.050;2023-06-10T04:04:16;5.25;;;4.32;;
35257;SDS011;21385;50.878;8.050;2023-06-10T04:06:42;5.28;;;3.47;;
35257;SDS011;21385;50.878;8.050;2023-06-10T04:09:08;8.20;;;4.00;;
35257;SDS011;21385;50.878;8.050;2023-06-10T04:11:35;6.45;;;4.57;;
35257;SDS011;21385;50.878;8.050;2023-06-10T04:14:01;4.55;;;4.10;;
35257;SDS011;21385;50.878;8.050;2023-06-10T04:16:27;3.70;;;3.35;;
35257;SDS011;21385;50.878;8.050;2023-06-10T04:18:52;4.25;;;3.35;;
35257;SDS011;21385;50.878;8.050;2023-06-10T04:21:18;5.57;;;4.50;;
35257;SDS011;21385;50.878;8.050;2023-06-10T04:23:43;4.55;;;3.90;;
35257;SDS011;21385;50.878;8.050;2023-06-10T04:26:09;5.28;;;4.78;;
35257;SDS011;21385;50.878;8.050;2023-06-10T04:28:37;4.43;;;4.00;;
35257;SDS011;21385;50.878;8.050;2023-06-10T04:31:03;4.75;;;4.22;;
35257;SDS011;21385;50.878;8.050;2023-06-10T04:33:29;4.65;;;4.25;;
35257;SDS011;21385;50.878;8.050;2023-06-10T04:35:55;4.35;;;3.92;;
35257;SDS011;21385;50.878;8.050;2023-06-10T04:38:21;4.43;;;3.97;;
35257;SDS011;21385;50.878;8.050;2023-06-10T04:40:47;4.80;;;4.18;;
35257;SDS011;21385;50.878;8.050;2023-06-10T04:43:13;7.03;;;4.72;;
35257;SDS011;21385;50.878;8.050;2023-06-10T04:45:38;8.18;;;4.78;;
35257;SDS011;21385;50.878;8.050;2023-06-10T04:48:04;10.32;;;3.40;;
35257;SDS011;21385;50.878;8.050;2023-06-10T04:50:30;3.15;;;2.85;;
35257;SDS011;21385;50.878;8.050;2023-06-10T04:52:57;7.32;;;4.53;;
35257;SDS011;21385;50.878;8.050;2023-06-10T04:55:23;8.77;;;3.13;;
35257;SDS011;21385;50.878;8.050;2023-06-10T04:57:50;3.72;;;3.42;;
35257;SDS011;21385;50.878;8.050;2023-06-10T05:00:16;4.80;;;4.00;;
35257;SDS011;21385;50.878;8.050;2023-06-10T05:02:42;4.38;;;3.47;;
35257;SDS011;21385;50.878;8.050;2023-06-10T05:05:07;4.70;;;4.05;;
35257;SDS011;21385;50.878;8.050;2023-06-10T05:07:33;7.03;;;4.32;;
35257;SDS011;21385;50.878;8.050;2023-06-10T05:09:59;4.72;;;3.90;;
35257;SDS011;21385;50.878;8.050;2023-06-10T05:12:25;3.55;;;3.25;;
35257;SDS011;21385;50.878;8.050;2023-06-10T05:14:51;4.35;;;3.40;;
35257;SDS011;21385;50.878;8.050;2023-06-10T05:17:17;3.85;;;3.55;;
35257;SDS011;21385;50.878;8.050;2023-06-10T05:19:42;4.35;;;3.45;;
35257;SDS011;21385;50.878;8.050;2023-06-10T05:22:09;3.92;;;2.85;;
35257;SDS011;21385;50.878;8.050;2023-06-10T05:24:35;4.55;;;3.30;;
35257;SDS011;21385;50.878;8.050;2023-06-10T05:27:00;3.33;;;3.05;;
35257;SDS011;21385;50.878;8.050;2023-06-10T05:29:26;3.75;;;3.15;;
35257;SDS011;21385;50.878;8.050;2023-06-10T05:31:52;5.35;;;3.58;;
35257;SDS011;21385;50.878;8.050;2023-06-10T05:34:17;4.32;;;3.50;;
35257;SDS011;21385;50.878;8.050;2023-06-10T05:36:43;2.95;;;2.70;;
35257;SDS011;21385;50.878;8.050;2023-06-10T05:39:09;6.28;;;2.97;;
35257;SDS011;21385;50.878;8.050;2023-06-10T05:41:35;3.28;;;2.97;;
35257;SDS011;21385;50.878;8.050;2023-06-10T05:44:00;3.53;;;2.97;;
35257;SDS011;21385;50.878;8.050;2023-06-10T05:46:26;4.40;;;3.58;;
35257;SDS011;21385;50.878;8.050;2023-06-10T05:48:52;5.15;;;3.80;;
35257;SDS011;21385;50.878;8.050;2023-06-10T05:51:17;3.88;;;3.28;;
35257;SDS011;21385;50.878;8.050;2023-06-10T05:53:43;6.65;;;4.15;;
35257;SDS011;21385;50.878;8.050;2023-06-10T05:56:11;5.00;;;3.38;;
35257;SDS011;21385;50.878;8.050;2023-06-10T05:58:37;4.72;;;3.72;;
35257;SDS011;21385;50.878;8.050;2023-06-10T06:01:02;3.92;;;2.85;;
35257;SDS011;21385;50.878;8.050;2023-06-10T06:03:28;3.88;;;3.10;;
35257;SDS011;21385;50.878;8.050;2023-06-10T06:05:54;3.03;;;2.80;;
35257;SDS011;21385;50.878;8.050;2023-06-10T06:08:20;7.75;;;3.10;;
35257;SDS011;21385;50.878;8.050;2023-06-10T06:10:45;5.20;;;3.53;;
35257;SDS011;21385;50.878;8.050;2023-06-10T06:13:12;5.38;;;2.95;;
35257;SDS011;21385;50.878;8.050;2023-06-10T06:15:38;4.10;;;2.85;;
35257;SDS011;21385;50.878;8.050;2023-06-10T06:18:04;3.90;;;3.00;;
35257;SDS011;21385;50.878;8.050;2023-06-10T06:20:30;3.17;;;2.88;;
35257;SDS011;21385;50.878;8.050;2023-06-10T06:22:56;5.70;;;2.63;;
35257;SDS011;21385;50.878;8.050;2023-06-10T06:25:22;2.78;;;2.58;;
35257;SDS011;21385;50.878;8.050;2023-06-10T06:27:48;3.38;;;2.45;;
35257;SDS011;21385;50.878;8.050;2023-06-10T06:30:14;3.40;;;3.10;;
35257;SDS011;21385;50.878;8.050;2023-06-10T06:32:40;4.85;;;3.53;;
35257;SDS011;21385;50.878;8.050;2023-06-10T06:35:06;3.70;;;2.55;;
35257;SDS011;21385;50.878;8.050;2023-06-10T06:37:33;2.70;;;2.47;;
35257;SDS011;21385;50.878;8.050;2023-06-10T06:40:00;2.65;;;2.45;;
35257;SDS011;21385;50.878;8.050;2023-06-10T06:42:26;4.30;;;2.90;;
35257;SDS011;21385;50.878;8.050;2023-06-10T06:44:52;3.65;;;2.22;;
35257;SDS011;21385;50.878;8.050;2023-06-10T06:47:18;3.10;;;2.58;;
35257;SDS011;21385;50.878;8.050;2023-06-10T06:49:47;4.45;;;3.00;;
35257;SDS011;21385;50.878;8.050;2023-06-10T06:52:14;2.33;;;2.13;;
35257;SDS011;21385;50.878;8.050;2023-06-10T06:54:40;2.00;;;1.85;;
35257;SDS011;21385;50.878;8.050;2023-06-10T06:57:06;3.22;;;2.40;;
35257;SDS011;21385;50.878;8.050;2023-06-10T06:59:33;2.70;;;2.17;;
35257;SDS011;21385;50.878;8.050;2023-06-10T07:01:59;3.78;;;2.58;;
35257;SDS011;21385;50.878;8.050;2023-06-10T07:04:25;4.43;;;2.47;;
35257;SDS011;21385;50.878;8.050;2023-06-10T07:06:51;2.80;;;2.60;;
35257;SDS011;21385;50.878;8.050;2023-06-10T07:09:17;5.43;;;3.00;;
35257;SDS011;21385;50.878;8.050;2023-06-10T07:11:43;5.85;;;2.58;;
35257;SDS011;21385;50.878;8.050;2023-06-10T07:14:09;3.13;;;2.30;;
35257;SDS011;21385;50.878;8.050;2023-06-10T07:16:35;3.20;;;2.58;;
35257;SDS011;21385;50.878;8.050;2023-06-10T07:19:01;8.02;;;3.03;;
35257;SDS011;21385;50.878;8.050;2023-06-10T07:21:27;4.28;;;2.35;;
35257;SDS011;21385;50.878;8.050;2023-06-10T07:23:53;2.58;;;2.38;;
35257;SDS011;21385;50.878;8.050;2023-06-10T07:26:21;3.47;;;2.40;;
35257;SDS011;21385;50.878;8.050;2023-06-10T07:28:47;3.92;;;2.83;;
35257;SDS011;21385;50.878;8.050;2023-06-10T07:31:13;4.55;;;3.45;;
35257;SDS011;21385;50.878;8.050;2023-06-10T07:33:39;6.20;;;2.70;;
35257;SDS011;21385;50.878;8.050;2023-06-10T07:36:06;3.17;;;2.38;;
35257;SDS011;21385;50.878;8.050;2023-06-10T07:38:32;2.78;;;2.33;;
35257;SDS011;21385;50.878;8.050;2023-06-10T07:40:58;3.78;;;2.33;;
35257;SDS011;21385;50.878;8.050;2023-06-10T07:43:25;2.63;;;2.42;;
35257;SDS011;21385;50.878;8.050;2023-06-10T07:45:51;2.25;;;2.05;;
35257;SDS011;21385;50.878;8.050;2023-06-10T07:48:17;2.63;;;2.40;;
35257;SDS011;21385;50.878;8.050;2023-06-10T07:50:43;6.57;;;2.40;;
35257;SDS011;21385;50.878;8.050;2023-06-10T07:53:09;2.63;;;2.00;;
35257;SDS011;21385;50.878;8.050;2023-06-10T07:55:35;9.75;;;2.88;;
35257;SDS011;21385;50.878;8.050;2023-06-10T07:58:01;3.13;;;2.80;;
35257;SDS011;21385;50.878;8.050;2023-06-10T08:00:27;6.05;;;2.72;;
35257;SDS011;21385;50.878;8.050;2023-06-10T08:02:53;4.28;;;2.97;;
35257;SDS011;21385;50.878;8.050;2023-06-10T08:05:20;4.72;;;2.63;;
35257;SDS011;21385;50.878;8.050;2023-06-10T08:07:46;6.43;;;2.55;;
35257;SDS011;21385;50.878;8.050;2023-06-10T08:10:12;4.05;;;2.70;;
35257;SDS011;21385;50.878;8.050;2023-06-10T08:12:38;5.30;;;2.88;;
35257;SDS011;21385;50.878;8.050;2023-06-10T08:15:04;8.98;;;2.38;;
35257;SDS011;21385;50.878;8.050;2023-06-10T08:17:31;3.40;;;2.83;;
35257;SDS011;21385;50.878;8.050;2023-06-10T08:19:57;2.80;;;2.53;;
35257;SDS011;21385;50.878;8.050;2023-06-10T08:22:23;2.90;;;2.60;;
35257;SDS011;21385;50.878;8.050;2023-06-10T08:24:49;2.60;;;2.40;;
35257;SDS011;21385;50.878;8.050;2023-06-10T08:27:15;15.43;;;2.40;;
35257;SDS011;21385;50.878;8.050;2023-06-10T08:29:41;2.97;;;2.67;;
35257;SDS011;21385;50.878;8.050;2023-06-10T08:32:07;2.67;;;2.10;;
35257;SDS011;21385;50.878;8.050;2023-06-10T08:34:33;5.38;;;3.35;;
35257;SDS011;21385;50.878;8.050;2023-06-10T08:37:03;3.20;;;2.53;;
35257;SDS011;21385;50.878;8.050;2023-06-10T08:39:29;3.13;;;2.53;;
35257;SDS011;21385;50.878;8.050;2023-06-10T08:44:29;3.35;;;2.90;;
35257;SDS011;21385;50.878;8.050;2023-06-10T08:46:59;2.80;;;2.60;;
35257;SDS011;21385;50.878;8.050;2023-06-10T08:49:29;4.90;;;2.55;;
35257;SDS011;21385;50.878;8.050;2023-06-10T08:51:59;8.07;;;3.17;;
35257;SDS011;21385;50.878;8.050;2023-06-10T08:54:31;2.65;;;2.33;;
35257;SDS011;21385;50.878;8.050;2023-06-10T08:56:59;9.23;;;3.15;;
35257;SDS011;21385;50.878;8.050;2023-06-10T08:59:27;6.82;;;2.88;;
35257;SDS011;21385;50.878;8.050;2023-06-10T09:01:53;2.15;;;1.95;;
35257;SDS011;21385;50.878;8.050;2023-06-10T09:04:20;4.22;;;2.50;;
35257;SDS011;21385;50.878;8.050;2023-06-10T09:06:46;2.75;;;2.47;;
35257;SDS011;21385;50.878;8.050;2023-06-10T09:09:12;2.75;;;2.55;;
35257;SDS011;21385;50.878;8.050;2023-06-10T09:11:39;2.50;;;2.30;;
35257;SDS011;21385;50.878;8.050;2023-06-10T09:14:06;2.97;;;2.25;;
35257;SDS011;21385;50.878;8.050;2023-06-10T09:16:32;2.47;;;2.28;;
35257;SDS011;21385;50.878;8.050;2023-06-10T09:18:58;3.60;;;2.90;;
35257;SDS011;21385;50.878;8.050;2023-06-10T09:21:24;7.30;;;2.25;;
35257;SDS011;21385;50.878;8.050;2023-06-10T09:23:50;3.85;;;3.28;;
35257;SDS011;21385;50.878;8.050;2023-06-10T09:26:18;4.03;;;2.28;;
35257;SDS011;21385;50.878;8.050;2023-06-10T09:28:48;2.17;;;1.98;;
35257;SDS011;21385;50.878;8.050;2023-06-10T09:31:15;2.70;;;2.50;;
35257;SDS011;21385;50.878;8.050;2023-06-10T09:33:46;5.68;;;2.40;;
35257;SDS011;21385;50.878;8.050;2023-06-10T09:36:21;3.00;;;2.65;;
35257;SDS011;21385;50.878;8.050;2023-06-10T09:38:49;8.45;;;2.17;;
35257;SDS011;21385;50.878;8.050;2023-06-10T09:41:15;2.72;;;2.53;;
35257;SDS011;21385;50.878;8.050;2023-06-10T09:43:45;2.33;;;2.00;;
35257;SDS011;21385;50.878;8.050;2023-06-10T09:46:15;7.57;;;3.00;;
35257;SDS011;21385;50.878;8.050;2023-06-10T09:48:42;2.03;;;1.92;;
35257;SDS011;21385;50.878;8.050;2023-06-10T09:51:09;4.28;;;2.15;;
35257;SDS011;21385;50.878;8.050;2023-06-10T09:53:35;3.05;;;2.45;;
35257;SDS011;21385;50.878;8.050;2023-06-10T09:56:02;4.55;;;2.60;;
35257;SDS011;21385;50.878;8.050;2023-06-10T09:58:37;2.83;;;2.03;;
35257;SDS011;21385;50.878;8.050;2023-06-10T10:01:10;2.47;;;2.10;;
35257;SDS011;21385;50.878;8.050;2023-06-10T10:03:46;3.17;;;1.98;;
35257;SDS011;21385;50.878;8.050;2023-06-10T10:06:15;2.30;;;2.03;;
35257;SDS011;21385;50.878;8.050;2023-06-10T10:08:41;2.05;;;1.85;;
35257;SDS011;21385;50.878;8.050;2023-06-10T10:11:08;5.05;;;2.35;;
35257;SDS011;21385;50.878;8.050;2023-06-10T10:13:34;2.38;;;2.17;;
35257;SDS011;21385;50.878;8.050;2023-06-10T10:16:01;5.20;;;2.00;;
35257;SDS011;21385;50.878;8.050;2023-06-10T10:18:29;2.90;;;1.70;;
35257;SDS011;21385;50.878;8.050;2023-06-10T10:20:55;3.25;;;2.25;;
35257;SDS011;21385;50.878;8.050;2023-06-10T10:23:52;2.85;;;1.92;;
35257;SDS011;21385;50.878;8.050;2023-06-10T10:26:18;2.78;;;2.05;;
35257;SDS011;21385;50.878;8.050;2023-06-10T10:28:51;5.10;;;2.03;;
35257;SDS011;21385;50.878;8.050;2023-06-10T10:31:19;2.53;;;1.92;;
35257;SDS011;21385;50.878;8.050;2023-06-10T10:33:49;1.90;;;1.80;;
35257;SDS011;21385;50.878;8.050;2023-06-10T10:36:18;2.33;;;1.90;;
35257;SDS011;21385;50.878;8.050;2023-06-10T10:38:45;3.08;;;1.60;;
35257;SDS011;21385;50.878;8.050;2023-06-10T10:41:11;10.50;;;2.45;;
35257;SDS011;21385;50.878;8.050;2023-06-10T10:43:38;1.77;;;1.65;;
35257;SDS011;21385;50.878;8.050;2023-06-10T10:46:11;6.65;;;2.58;;
35257;SDS011;21385;50.878;8.050;2023-06-10T10:48:38;2.25;;;1.98;;
35257;SDS011;21385;50.878;8.050;2023-06-10T10:51:06;2.22;;;1.90;;
35257;SDS011;21385;50.878;8.050;2023-06-10T10:53:32;2.60;;;1.80;;
35257;SDS011;21385;50.878;8.050;2023-06-10T10:56:05;2.08;;;1.88;;
35257;SDS011;21385;50.878;8.050;2023-06-10T10:58:32;2.72;;;2.22;;
35257;SDS011;21385;50.878;8.050;2023-06-10T11:00:58;1.77;;;1.65;;
35257;SDS011;21385;50.878;8.050;2023-06-10T11:03:27;2.47;;;1.77;;
35257;SDS011;21385;50.878;8.050;2023-06-10T11:05:54;4.72;;;2.28;;
35257;SDS011;21385;50.878;8.050;2023-06-10T11:08:45;1.65;;;1.55;;
35257;SDS011;21385;50.878;8.050;2023-06-10T11:11:22;2.50;;;2.30;;
35257;SDS011;21385;50.878;8.050;2023-06-10T11:14:07;4.38;;;1.88;;
35257;SDS011;21385;50.878;8.050;2023-06-10T11:16:38;2.65;;;2.45;;
35257;SDS011;21385;50.878;8.050;2023-06-10T11:19:05;3.13;;;2.38;;
35257;SDS011;21385;50.878;8.050;2023-06-10T11:21:31;1.98;;;1.88;;
35257;SDS011;21385;50.878;8.050;2023-06-10T11:23:57;2.45;;;2.25;;
35257;SDS011;21385;50.878;8.050;2023-06-10T11:29:05;2.22;;;1.45;;
35257;SDS011;21385;50.878;8.050;2023-06-10T11:31:35;4.90;;;1.63;;
35257;SDS011;21385;50.878;8.050;2023-06-10T11:36:31;4.10;;;2.53;;
35257;SDS011;21385;50.878;8.050;2023-06-10T11:38:58;4.05;;;1.95;;
35257;SDS011;21385;50.878;8.050;2023-06-10T11:41:25;2.05;;;1.90;;
35257;SDS011;21385;50.878;8.050;2023-06-10T11:43:54;4.63;;;1.98;;
35257;SDS011;21385;50.878;8.050;2023-06-10T11:46:23;2.05;;;1.60;;
35257;SDS011;21385;50.878;8.050;2023-06-10T11:48:53;3.13;;;1.60;;
35257;SDS011;21385;50.878;8.050;2023-06-10T11:51:19;1.98;;;1.83;;
35257;SDS011;21385;50.878;8.050;2023-06-10T11:53:49;3.15;;;1.67;;
35257;SDS011;21385;50.878;8.050;2023-06-10T11:56:25;3.08;;;2.28;;
35257;SDS011;21385;50.878;8.050;2023-06-10T11:58:52;2.28;;;2.05;;
35257;SDS011;21385;50.878;8.050;2023-06-10T12:01:19;3.83;;;1.83;;
35257;SDS011;21385;50.878;8.050;2023-06-10T12:03:46;1.90;;;1.60;;
35257;SDS011;21385;50.878;8.050;2023-06-10T12:06:13;2.72;;;1.90;;
35257;SDS011;21385;50.878;8.050;2023-06-10T12:08:42;8.88;;;2.13;;
35257;SDS011;21385;50.878;8.050;2023-06-10T12:11:08;3.05;;;2.05;;
35257;SDS011;21385;50.878;8.050;2023-06-10T12:13:34;2.63;;;2.42;;
35257;SDS011;21385;50.878;8.050;2023-06-10T12:16:09;8.80;;;3.25;;
35257;SDS011;21385;50.878;8.050;2023-06-10T12:18:36;4.30;;;3.53;;
35257;SDS011;21385;50.878;8.050;2023-06-10T12:21:02;3.13;;;1.88;;
35257;SDS011;21385;50.878;8.050;2023-06-10T12:23:28;3.13;;;1.45;;
35257;SDS011;21385;50.878;8.050;2023-06-10T12:25:55;2.17;;;1.80;;
35257;SDS011;21385;50.878;8.050;2023-06-10T12:28:25;3.65;;;2.00;;
35257;SDS011;21385;50.878;8.050;2023-06-10T12:30:51;2.17;;;1.98;;
35257;SDS011;21385;50.878;8.050;2023-06-10T12:33:21;4.40;;;2.05;;
35257;SDS011;21385;50.878;8.050;2023-06-10T12:35:51;2.50;;;2.10;;
35257;SDS011;21385;50.878;8.050;2023-06-10T12:38:21;2.38;;;2.00;;
35257;SDS011;21385;50.878;8.050;2023-06-10T12:40:47;2.33;;;1.50;;
35257;SDS011;21385;50.878;8.050;2023-06-10T12:43:18;2.20;;;2.00;;
35257;SDS011;21385;50.878;8.050;2023-06-10T12:45:44;1.85;;;1.60;;
35257;SDS011;21385;50.878;8.050;2023-06-10T12:48:11;1.65;;;1.55;;
35257;SDS011;21385;50.878;8.050;2023-06-10T12:50:41;1.77;;;1.63;;
35257;SDS011;21385;50.878;8.050;2023-06-10T12:53:08;2.30;;;2.10;;
35257;SDS011;21385;50.878;8.050;2023-06-10T12:55:34;12.70;;;1.98;;
35257;SDS011;21385;50.878;8.050;2023-06-10T12:58:01;2.45;;;1.98;;
35257;SDS011;21385;50.878;8.050;2023-06-10T13:00:28;1.75;;;1.65;;
35257;SDS011;21385;50.878;8.050;2023-06-10T13:02:55;2.40;;;2.15;;
35257;SDS011;21385;50.878;8.050;2023-06-10T13:05:21;12.18;;;1.73;;
35257;SDS011;21385;50.878;8.050;2023-06-10T13:07:47;3.67;;;2.05;;
35257;SDS011;21385;50.878;8.050;2023-06-10T13:10:16;6.30;;;1.70;;
35257;SDS011;21385;50.878;8.050;2023-06-10T13:12:43;3.25;;;1.90;;
35257;SDS011;21385;50.878;8.050;2023-06-10T13:15:09;7.10;;;1.52;;
35257;SDS011;21385;50.878;8.050;2023-06-10T13:17:35;2.78;;;1.95;;
35257;SDS011;21385;50.878;8.050;2023-06-10T13:20:02;4.20;;;1.63;;
35257;SDS011;21385;50.878;8.050;2023-06-10T13:22:30;2.67;;;1.55;;
35257;SDS011;21385;50.878;8.050;2023-06-10T13:24:58;2.38;;;2.05;;
35257;SDS011;21385;50.878;8.050;2023-06-10T13:27:24;1.70;;;1.60;;
35257;SDS011;21385;50.878;8.050;2023-06-10T13:29:50;2.38;;;2.17;;
35257;SDS011;21385;50.878;8.050;2023-06-10T13:32:16;1.92;;;1.77;;
35257;SDS011;21385;50.878;8.050;2023-06-10T13:34:42;2.72;;;1.65;;
35257;SDS011;21385;50.878;8.050;2023-06-10T13:37:08;1.90;;;1.80;;
35257;SDS011;21385;50.878;8.050;2023-06-10T13:39:34;5.13;;;2.38;;
35257;SDS011;21385;50.878;8.050;2023-06-10T13:42:00;2.28;;;2.05;;
35257;SDS011;21385;50.878;8.050;2023-06-10T13:44:26;2.42;;;2.20;;
35257;SDS011;21385;50.878;8.050;2023-06-10T13:46:55;1.77;;;1.67;;
35257;SDS011;21385;50.878;8.050;2023-06-10T13:49:21;3.08;;;2.00;;
35257;SDS011;21385;50.878;8.050;2023-06-10T13:51:47;1.67;;;1.58;;
35257;SDS011;21385;50.878;8.050;2023-06-10T13:54:13;5.22;;;1.90;;
35257;SDS011;21385;50.878;8.050;2023-06-10T13:56:40;1.83;;;1.70;;
35257;SDS011;21385;50.878;8.050;2023-06-10T13:59:07;2.25;;;1.70;;
35257;SDS011;21385;50.878;8.050;2023-06-10T14:01:33;7.47;;;2.33;;
35257;SDS011;21385;50.878;8.050;2023-06-10T14:03:59;4.22;;;1.70;;
35257;SDS011;21385;50.878;8.050;2023-06-10T14:06:25;2.50;;;2.30;;
35257;SDS011;21385;50.878;8.050;2023-06-10T14:08:52;1.88;;;1.70;;
35257;SDS011;21385;50.878;8.050;2023-06-10T14:11:19;1.85;;;1.75;;
35257;SDS011;21385;50.878;8.050;2023-06-10T14:13:46;3.05;;;1.77;;
35257;SDS011;21385;50.878;8.050;2023-06-10T14:16:12;1.92;;;1.83;;
35257;SDS011;21385;50.878;8.050;2023-06-10T14:18:38;6.18;;;1.85;;
35257;SDS011;21385;50.878;8.050;2023-06-10T14:21:04;6.07;;;1.85;;
35257;SDS011;21385;50.878;8.050;2023-06-10T14:23:30;2.50;;;1.77;;
35257;SDS011;21385;50.878;8.050;2023-06-10T14:25:56;1.77;;;1.67;;
35257;SDS011;21385;50.878;8.050;2023-06-10T14:28:23;1.67;;;1.58;;
35257;SDS011;21385;50.878;8.050;2023-06-10T14:30:51;1.55;;;1.45;;
35257;SDS011;21385;50.878;8.050;2023-06-10T14:33:17;2.80;;;1.77;;
35257;SDS011;21385;50.878;8.050;2023-06-10T14:35:43;1.80;;;1.70;;
35257;SDS011;21385;50.878;8.050;2023-06-10T14:38:10;2.47;;;2.03;;
35257;SDS011;21385;50.878;8.050;2023-06-10T14:40:36;2.95;;;1.42;;
35257;SDS011;21385;50.878;8.050;2023-06-10T14:43:02;2.78;;;2.17;;
35257;SDS011;21385;50.878;8.050;2023-06-10T14:45:34;2.33;;;1.80;;
35257;SDS011;21385;50.878;8.050;2023-06-10T14:48:00;1.83;;;1.50;;
35257;SDS011;21385;50.878;8.050;2023-06-10T14:50:26;4.10;;;1.65;;
35257;SDS011;21385;50.878;8.050;2023-06-10T14:52:52;1.75;;;1.60;;
35257;SDS011;21385;50.878;8.050;2023-06-10T14:55:18;1.80;;;1.70;;
35257;SDS011;21385;50.878;8.050;2023-06-10T14:57:45;2.97;;;2.40;;